createdAt,value
2017-11-16T01:38:47.105Z,9.79
2017-11-16T01:38:47.678Z,9.78
2017-11-16T01:38:48.279Z,9.81
2017-11-16T01:38:48.879Z,9.81
2017-11-16T01:38:49.478Z,9.89
2017-11-16T01:38:50.079Z,9.81
2017-11-16T01:38:50.679Z,9.78
2017-11-16T01:39:44.141Z,9.76
2017-11-16T01:39:44.715Z,9.83
2017-11-16T01:39:45.314Z,9.78
2017-11-16T01:39:45.914Z,9.82
2017-11-16T01:39:46.527Z,9.81
2017-11-16T01:39:47.115Z,9.81
2017-11-16T01:39:47.713Z,9.81
2017-11-16T01:39:48.313Z,9.86
2017-11-16T01:40:43.347Z,9.81
2017-11-16T01:40:43.905Z,9.78
2017-11-16T01:40:44.505Z,9.85
2017-11-16T01:40:45.104Z,9.79
2017-11-16T01:40:45.704Z,9.81
2017-11-16T01:40:46.306Z,9.83
2017-11-16T01:40:46.904Z,9.89
2017-11-16T01:41:40.472Z,9.75
2017-11-16T01:41:41.044Z,9.78
2017-11-16T01:41:41.643Z,9.86
2017-11-16T01:41:42.251Z,9.82
2017-11-16T01:41:42.842Z,9.78
2017-11-16T01:41:43.446Z,9.81
2017-11-16T01:41:44.043Z,9.83
2017-11-16T01:41:44.645Z,9.86
2017-11-16T01:42:38.130Z,9.81
2017-11-16T01:42:38.697Z,9.89
2017-11-16T01:42:39.295Z,9.78
2017-11-16T01:42:39.897Z,9.81
2017-11-16T01:42:40.496Z,9.81
2017-11-16T01:42:41.094Z,9.79
2017-11-16T01:42:41.696Z,9.75
2017-11-16T01:42:42.301Z,9.78
2017-11-16T01:43:36.799Z,9.82
2017-11-16T01:43:37.375Z,9.83
2017-11-16T01:43:37.973Z,9.89
2017-11-16T01:43:38.572Z,9.89
2017-11-16T01:43:39.172Z,9.79
2017-11-16T01:43:39.771Z,9.81
2017-11-16T01:43:40.370Z,9.78
2017-11-16T01:43:40.971Z,9.89
2017-11-16T01:44:35.475Z,9.78
2017-11-16T01:44:36.054Z,9.85
2017-11-16T01:44:36.647Z,9.89
2017-11-16T01:44:37.248Z,9.83
2017-11-16T01:44:37.847Z,9.81
2017-11-16T01:44:38.446Z,9.75
2017-11-16T01:44:39.046Z,9.81
2017-11-16T01:44:39.647Z,9.78
2017-11-16T01:45:33.128Z,9.75
2017-11-16T01:45:33.700Z,9.83
2017-11-16T01:45:34.301Z,9.82
2017-11-16T01:45:34.900Z,9.83
2017-11-16T01:45:35.499Z,9.83
2017-11-16T01:45:36.101Z,9.78
2017-11-16T01:45:36.700Z,9.83
2017-11-16T01:45:37.299Z,9.79
2017-11-16T01:46:30.785Z,9.83
2017-11-16T01:46:31.353Z,9.83
2017-11-16T01:46:31.952Z,9.79
2017-11-16T01:46:32.551Z,9.86
2017-11-16T01:46:33.158Z,9.82
2017-11-16T01:46:33.751Z,9.91
2017-11-16T01:46:34.351Z,9.88
2017-11-16T01:46:34.952Z,9.86
2017-11-16T01:47:28.431Z,9.83
2017-11-16T01:47:29.004Z,9.85
2017-11-16T01:47:29.609Z,9.91
2017-11-16T01:47:30.203Z,9.91
2017-11-16T01:47:30.804Z,9.88
2017-11-16T01:47:31.404Z,9.85
2017-11-16T01:47:32.003Z,9.89
2017-11-16T01:47:32.603Z,9.85
2017-11-16T01:48:26.083Z,9.89
2017-11-16T01:48:26.655Z,9.91
2017-11-16T01:48:27.256Z,9.83
2017-11-16T01:48:27.855Z,9.86
2017-11-16T01:48:28.455Z,9.89
2017-11-16T01:48:29.054Z,9.86
2017-11-16T01:48:29.654Z,9.81
2017-11-16T01:48:30.254Z,9.83
2017-11-16T01:49:24.756Z,9.85
2017-11-16T01:49:25.334Z,9.91
2017-11-16T01:49:25.930Z,9.89
2017-11-16T01:49:26.529Z,9.85
2017-11-16T01:49:27.128Z,9.85
2017-11-16T01:49:27.730Z,9.93
2017-11-16T01:49:28.328Z,9.89
2017-11-16T01:49:28.929Z,9.85
2017-11-16T01:50:22.409Z,9.91
2017-11-16T01:50:22.986Z,9.86
2017-11-16T01:50:23.582Z,9.91
2017-11-16T01:50:24.183Z,9.85
2017-11-16T01:50:24.783Z,9.89
2017-11-16T01:50:25.382Z,9.83
2017-11-16T01:50:25.982Z,9.93
2017-11-16T01:50:26.582Z,9.91
2017-11-16T01:51:20.061Z,9.91
2017-11-16T01:51:20.644Z,9.94
2017-11-16T01:51:21.235Z,9.91
2017-11-16T01:51:21.833Z,9.91
2017-11-16T01:51:22.433Z,9.91
2017-11-16T01:51:23.040Z,9.93
2017-11-16T01:51:23.645Z,9.89
2017-11-16T01:51:24.233Z,9.96
2017-11-16T01:52:17.721Z,10.00
2017-11-16T01:52:18.292Z,9.97
2017-11-16T01:52:18.888Z,10.01
2017-11-16T01:52:19.486Z,9.97
2017-11-16T01:52:20.087Z,9.97
2017-11-16T01:52:20.687Z,9.97
2017-11-16T01:52:21.285Z,10.00
2017-11-16T01:52:21.885Z,9.99
2017-11-16T01:53:16.392Z,10.01
2017-11-16T01:53:16.967Z,10.01
2017-11-16T01:53:17.562Z,10.01
2017-11-16T01:53:18.164Z,9.97
2017-11-16T01:53:18.771Z,10.06
2017-11-16T01:53:19.360Z,10.04
2017-11-16T01:53:19.960Z,9.99
2017-11-16T01:53:20.566Z,10.00
2017-11-16T01:54:14.042Z,10.06
2017-11-16T01:54:14.616Z,10.01
2017-11-16T01:54:15.214Z,10.07
2017-11-16T01:54:15.815Z,10.10
2017-11-16T01:54:16.414Z,10.04
2017-11-16T01:54:17.045Z,10.03
2017-11-16T01:54:17.614Z,10.01
2017-11-16T01:54:18.214Z,9.99
2017-11-16T01:55:12.715Z,10.07
2017-11-16T01:55:13.295Z,10.12
2017-11-16T01:55:13.888Z,10.14
2017-11-16T01:55:14.489Z,10.09
2017-11-16T01:55:15.091Z,10.07
2017-11-16T01:55:15.690Z,10.09
2017-11-16T01:55:16.288Z,10.06
2017-11-16T01:55:16.888Z,10.06
2017-11-16T01:56:10.368Z,10.09
2017-11-16T01:56:10.947Z,10.04
2017-11-16T01:56:11.544Z,10.10
2017-11-16T01:56:12.143Z,10.15
2017-11-16T01:56:12.743Z,10.10
2017-11-16T01:56:13.347Z,10.14
2017-11-16T01:56:13.944Z,10.12
2017-11-16T01:56:14.542Z,10.09
2017-11-16T01:57:08.020Z,10.12
2017-11-16T01:57:08.594Z,10.10
2017-11-16T01:57:09.194Z,10.03
2017-11-16T01:57:09.793Z,10.07
2017-11-16T01:57:10.393Z,10.17
2017-11-16T01:57:10.993Z,10.15
2017-11-16T01:57:11.610Z,10.17
2017-11-16T01:57:12.193Z,10.15
2017-11-16T01:58:05.672Z,10.18
2017-11-16T01:58:06.247Z,10.21
2017-11-16T01:58:06.857Z,10.10
2017-11-16T01:58:07.444Z,10.18
2017-11-16T01:58:08.046Z,10.18
2017-11-16T01:58:08.645Z,10.21
2017-11-16T01:58:09.248Z,10.19
2017-11-16T01:58:09.845Z,10.17
2017-11-16T01:59:03.323Z,10.24
2017-11-16T01:59:03.898Z,10.18
2017-11-16T01:59:04.496Z,10.22
2017-11-16T01:59:05.095Z,10.19
2017-11-16T01:59:05.703Z,10.24
2017-11-16T01:59:06.297Z,10.21
2017-11-16T01:59:06.896Z,10.26
2017-11-16T01:59:07.495Z,10.18
2017-11-16T02:00:00.985Z,10.21
2017-11-16T02:00:01.596Z,10.26
2017-11-16T02:00:02.289Z,10.22
2017-11-16T02:00:02.793Z,10.21
2017-11-16T02:00:03.391Z,10.19
2017-11-16T02:00:03.991Z,10.25
2017-11-16T02:00:04.595Z,10.18
2017-11-16T02:00:05.195Z,10.21
2017-11-16T02:00:58.729Z,10.25
2017-11-16T02:00:59.302Z,10.18
2017-11-16T02:00:59.903Z,10.32
2017-11-16T02:01:00.502Z,10.34
2017-11-16T02:01:01.101Z,10.19
2017-11-16T02:01:01.700Z,10.19
2017-11-16T02:01:02.304Z,10.32
2017-11-16T02:01:02.901Z,10.22
2017-11-16T02:01:56.378Z,10.33
2017-11-16T02:01:56.956Z,10.28
2017-11-16T02:01:57.554Z,10.26
2017-11-16T02:01:58.153Z,10.28
2017-11-16T02:01:58.754Z,10.36
2017-11-16T02:01:59.353Z,10.24
2017-11-16T02:01:59.954Z,10.34
2017-11-16T02:02:00.552Z,10.37
2017-11-16T02:02:54.032Z,10.34
2017-11-16T02:02:54.606Z,10.33
2017-11-16T02:02:55.205Z,10.30
2017-11-16T02:02:55.806Z,10.33
2017-11-16T02:02:56.406Z,10.30
2017-11-16T02:02:57.006Z,10.34
2017-11-16T02:02:57.605Z,10.32
2017-11-16T02:02:58.204Z,10.32
2017-11-16T02:03:51.684Z,10.37
2017-11-16T02:03:52.257Z,10.34
2017-11-16T02:03:52.859Z,10.30
2017-11-16T02:03:53.458Z,10.39
2017-11-16T02:03:54.063Z,10.33
2017-11-16T02:03:54.658Z,10.37
2017-11-16T02:03:55.259Z,10.39
2017-11-16T02:03:55.859Z,10.39
2017-11-16T02:04:50.360Z,10.37
2017-11-16T02:04:50.934Z,10.36
2017-11-16T02:04:51.533Z,10.42
2017-11-16T02:04:52.133Z,10.36
2017-11-16T02:04:52.734Z,10.25
2017-11-16T02:04:53.332Z,10.40
2017-11-16T02:04:53.932Z,10.46
2017-11-16T02:04:54.531Z,10.30
2017-11-16T02:05:48.010Z,10.37
2017-11-16T02:05:48.590Z,10.39
2017-11-16T02:05:49.185Z,10.46
2017-11-16T02:05:49.785Z,10.36
2017-11-16T02:05:50.385Z,10.37
2017-11-16T02:05:50.984Z,10.37
2017-11-16T02:05:51.585Z,10.46
2017-11-16T02:05:52.186Z,10.34
2017-11-16T02:06:45.664Z,10.42
2017-11-16T02:06:46.237Z,10.44
2017-11-16T02:06:46.837Z,10.37
2017-11-16T02:06:47.438Z,10.39
2017-11-16T02:06:48.038Z,10.43
2017-11-16T02:06:48.636Z,10.37
2017-11-16T02:06:49.236Z,10.47
2017-11-16T02:06:49.836Z,10.44
2017-11-16T02:07:43.316Z,10.46
2017-11-16T02:07:43.888Z,10.47
2017-11-16T02:07:44.488Z,10.44
2017-11-16T02:07:45.089Z,10.44
2017-11-16T02:07:45.689Z,10.42
2017-11-16T02:07:46.288Z,10.44
2017-11-16T02:07:46.888Z,10.44
2017-11-16T02:07:47.491Z,10.40
2017-11-16T02:08:40.967Z,10.44
2017-11-16T02:08:41.538Z,10.43
2017-11-16T02:08:42.140Z,10.40
2017-11-16T02:08:42.738Z,10.43
2017-11-16T02:08:43.346Z,10.43
2017-11-16T02:08:43.939Z,10.44
2017-11-16T02:08:44.540Z,10.44
2017-11-16T02:08:45.139Z,10.40
2017-11-16T02:09:38.621Z,10.46
2017-11-16T02:09:39.192Z,10.44
2017-11-16T02:09:39.792Z,10.51
2017-11-16T02:09:40.392Z,10.51
2017-11-16T02:09:40.992Z,10.43
2017-11-16T02:09:41.591Z,10.43
2017-11-16T02:09:42.192Z,10.44
2017-11-16T02:09:42.791Z,10.51
2017-11-16T02:10:36.274Z,10.53
2017-11-16T02:10:36.845Z,10.55
2017-11-16T02:10:37.444Z,10.55
2017-11-16T02:10:38.044Z,10.53
2017-11-16T02:10:38.644Z,10.55
2017-11-16T02:10:39.243Z,10.53
2017-11-16T02:10:39.842Z,10.55
2017-11-16T02:10:40.442Z,10.53
2017-11-16T02:11:34.952Z,10.55
2017-11-16T02:11:35.519Z,10.53
2017-11-16T02:11:36.123Z,10.58
2017-11-16T02:11:36.717Z,10.56
2017-11-16T02:11:37.320Z,10.58
2017-11-16T02:11:37.918Z,10.55
2017-11-16T02:11:38.518Z,10.56
2017-11-16T02:11:39.118Z,10.53
2017-11-16T02:12:32.598Z,10.55
2017-11-16T02:12:33.172Z,10.59
2017-11-16T02:12:33.769Z,10.59
2017-11-16T02:12:34.370Z,10.60
2017-11-16T02:12:34.975Z,10.56
2017-11-16T02:12:35.570Z,10.63
2017-11-16T02:12:36.171Z,10.60
2017-11-16T02:12:36.774Z,10.62
2017-11-16T02:13:30.248Z,10.62
2017-11-16T02:13:30.823Z,10.58
2017-11-16T02:13:31.424Z,10.60
2017-11-16T02:13:32.022Z,10.53
2017-11-16T02:13:32.622Z,10.65
2017-11-16T02:13:33.221Z,10.56
2017-11-16T02:13:33.821Z,10.63
2017-11-16T02:13:34.421Z,10.65
2017-11-16T02:14:28.923Z,10.55
2017-11-16T02:14:29.498Z,10.56
2017-11-16T02:14:30.098Z,10.63
2017-11-16T02:14:30.697Z,10.56
2017-11-16T02:14:31.298Z,10.58
2017-11-16T02:14:31.902Z,10.55
2017-11-16T02:14:32.503Z,10.56
2017-11-16T02:14:33.098Z,10.59
2017-11-16T02:15:27.598Z,10.63
2017-11-16T02:15:28.174Z,10.56
2017-11-16T02:15:28.772Z,10.55
2017-11-16T02:15:29.373Z,10.60
2017-11-16T02:15:29.983Z,10.62
2017-11-16T02:15:30.573Z,10.60
2017-11-16T02:15:31.186Z,10.53
2017-11-16T02:15:31.773Z,10.60
2017-11-16T02:16:26.275Z,10.56
2017-11-16T02:16:26.853Z,10.60
2017-11-16T02:16:27.451Z,10.60
2017-11-16T02:16:28.049Z,10.62
2017-11-16T02:16:28.646Z,10.60
2017-11-16T02:16:29.248Z,10.62
2017-11-16T02:16:29.852Z,10.65
2017-11-16T02:16:30.447Z,10.59
2017-11-16T02:17:23.927Z,10.56
2017-11-16T02:17:24.517Z,10.65
2017-11-16T02:17:25.099Z,10.56
2017-11-16T02:17:25.700Z,10.58
2017-11-16T02:17:26.301Z,10.62
2017-11-16T02:17:26.908Z,10.53
2017-11-16T02:17:27.500Z,10.62
2017-11-16T02:17:28.099Z,10.65
2017-11-16T02:18:21.579Z,10.58
2017-11-16T02:18:22.152Z,10.59
2017-11-16T02:18:22.754Z,10.55
2017-11-16T02:18:23.353Z,10.58
2017-11-16T02:18:23.952Z,10.59
2017-11-16T02:18:24.552Z,10.59
2017-11-16T02:18:25.150Z,10.56
2017-11-16T02:18:25.752Z,10.56
2017-11-16T02:19:20.262Z,10.55
2017-11-16T02:19:20.829Z,10.62
2017-11-16T02:19:21.429Z,10.58
2017-11-16T02:19:22.027Z,10.56
2017-11-16T02:19:22.627Z,10.63
2017-11-16T02:19:23.235Z,10.58
2017-11-16T02:19:23.837Z,10.60
2017-11-16T02:19:24.427Z,10.56
2017-11-16T02:20:17.912Z,10.60
2017-11-16T02:20:18.481Z,10.62
2017-11-16T02:20:19.080Z,10.55
2017-11-16T02:20:19.685Z,10.63
2017-11-16T02:20:20.281Z,10.63
2017-11-16T02:20:20.880Z,10.70
2017-11-16T02:20:21.479Z,10.58
2017-11-16T02:20:22.079Z,10.65
2017-11-16T02:21:15.558Z,10.68
2017-11-16T02:21:16.134Z,10.71
2017-11-16T02:21:16.732Z,10.70
2017-11-16T02:21:17.332Z,10.70
2017-11-16T02:21:17.935Z,10.65
2017-11-16T02:21:18.531Z,10.62
2017-11-16T02:21:19.137Z,10.73
2017-11-16T02:21:19.741Z,10.68
2017-11-16T02:22:13.210Z,10.71
2017-11-16T02:22:13.784Z,10.70
2017-11-16T02:22:14.384Z,10.63
2017-11-16T02:22:14.984Z,10.73
2017-11-16T02:22:15.583Z,10.65
2017-11-16T02:22:16.182Z,10.71
2017-11-16T02:22:16.788Z,10.71
2017-11-16T02:22:17.382Z,10.66
2017-11-16T02:23:10.862Z,10.63
2017-11-16T02:23:11.442Z,10.70
2017-11-16T02:23:12.035Z,10.62
2017-11-16T02:23:12.635Z,10.63
2017-11-16T02:23:13.233Z,10.68
2017-11-16T02:23:13.834Z,10.68
2017-11-16T02:23:14.434Z,10.66
2017-11-16T02:23:15.034Z,10.74
2017-11-16T02:24:08.513Z,10.68
2017-11-16T02:24:09.087Z,10.71
2017-11-16T02:24:09.687Z,10.66
2017-11-16T02:24:10.289Z,10.74
2017-11-16T02:24:10.887Z,10.77
2017-11-16T02:24:11.487Z,10.74
2017-11-16T02:24:12.086Z,10.71
2017-11-16T02:24:12.686Z,10.63
2017-11-16T02:25:06.165Z,10.70
2017-11-16T02:25:06.739Z,10.65
2017-11-16T02:25:07.340Z,10.74
2017-11-16T02:25:07.938Z,10.77
2017-11-16T02:25:08.538Z,10.71
2017-11-16T02:25:09.146Z,10.68
2017-11-16T02:25:09.737Z,10.70
2017-11-16T02:25:10.340Z,10.70
2017-11-16T02:26:04.840Z,10.74
2017-11-16T02:26:05.413Z,10.76
2017-11-16T02:26:06.012Z,10.74
2017-11-16T02:26:06.613Z,10.78
2017-11-16T02:26:07.214Z,10.71
2017-11-16T02:26:07.814Z,10.71
2017-11-16T02:26:08.413Z,10.76
2017-11-16T02:26:09.012Z,10.74
2017-11-16T02:27:03.003Z,10.83
2017-11-16T02:27:03.578Z,10.74
2017-11-16T02:27:04.177Z,10.78
2017-11-16T02:27:04.776Z,10.84
2017-11-16T02:27:05.378Z,10.78
2017-11-16T02:27:05.978Z,10.84
2017-11-16T02:27:06.576Z,10.81
2017-11-16T02:28:02.603Z,10.84
2017-11-16T02:28:03.174Z,10.88
2017-11-16T02:28:03.773Z,10.78
2017-11-16T02:28:04.374Z,10.86
2017-11-16T02:28:04.980Z,10.88
2017-11-16T02:28:05.574Z,10.84
2017-11-16T02:29:00.047Z,10.83
2017-11-16T02:29:00.622Z,10.88
2017-11-16T02:29:01.220Z,10.81
2017-11-16T02:29:01.820Z,10.77
2017-11-16T02:29:02.420Z,10.78
2017-11-16T02:29:03.020Z,10.89
2017-11-16T02:29:03.620Z,10.81
2017-11-16T02:29:57.597Z,10.84
2017-11-16T02:29:58.170Z,10.84
2017-11-16T02:29:58.770Z,10.92
2017-11-16T02:29:59.378Z,10.88
2017-11-16T02:29:59.970Z,10.86
2017-11-16T02:30:00.569Z,10.88
2017-11-16T02:30:01.171Z,10.89
2017-11-16T02:30:54.740Z,10.80
2017-11-16T02:30:55.312Z,10.88
2017-11-16T02:30:55.911Z,10.84
2017-11-16T02:30:56.511Z,10.89
2017-11-16T02:30:57.110Z,10.77
2017-11-16T02:30:57.709Z,10.80
2017-11-16T02:30:58.313Z,10.88
2017-11-16T02:30:58.911Z,10.84
2017-11-16T02:31:52.903Z,10.91
2017-11-16T02:31:53.477Z,10.83
2017-11-16T02:31:54.078Z,10.80
2017-11-16T02:31:54.675Z,10.83
2017-11-16T02:31:55.275Z,10.89
2017-11-16T02:31:55.877Z,10.81
2017-11-16T02:31:56.473Z,10.84
2017-11-16T02:32:55.977Z,10.77
2017-11-16T02:32:56.552Z,10.81
2017-11-16T02:32:57.151Z,10.77
2017-11-16T02:32:57.755Z,10.77
2017-11-16T02:32:58.354Z,10.89
2017-11-16T02:32:58.952Z,10.80
2017-11-16T02:32:59.552Z,10.77
2017-11-16T02:33:00.153Z,10.91
2017-11-16T02:33:00.752Z,10.83
2017-11-16T02:33:01.352Z,10.89
2017-11-16T02:33:01.966Z,10.86
2017-11-16T02:33:02.555Z,10.84
2017-11-16T02:33:03.150Z,10.77
2017-11-16T02:33:03.750Z,10.91
2017-11-16T02:33:04.353Z,10.83
2017-11-16T02:33:04.951Z,10.81
2017-11-16T02:52:40.861Z,10.43
2017-11-16T02:52:41.428Z,10.42
2017-11-16T02:52:42.028Z,10.44
2017-11-16T02:52:42.634Z,10.46
2017-11-16T02:52:43.227Z,10.44
2017-11-16T02:52:43.827Z,10.42
2017-11-16T02:52:44.432Z,10.39
2017-11-16T02:52:45.030Z,10.43
2017-11-16T02:53:38.510Z,10.37
2017-11-16T02:53:39.089Z,10.43
2017-11-16T02:53:39.688Z,10.46
2017-11-16T02:53:41.062Z,10.46
2017-11-16T02:53:41.560Z,10.44
2017-11-16T02:53:42.169Z,10.43
2017-11-16T02:53:42.760Z,10.44
2017-11-16T02:54:37.285Z,10.47
2017-11-16T02:54:37.860Z,10.37
2017-11-16T02:54:38.459Z,10.47
2017-11-16T02:54:39.065Z,10.44
2017-11-16T02:54:39.657Z,10.43
2017-11-16T02:54:40.263Z,10.44
2017-11-16T02:54:40.857Z,10.43
2017-11-16T02:54:41.456Z,10.40
2017-11-16T02:55:34.935Z,10.39
2017-11-16T02:55:35.511Z,10.43
2017-11-16T02:55:36.111Z,10.37
2017-11-16T02:55:36.728Z,10.47
2017-11-16T02:55:37.310Z,10.40
2017-11-16T02:55:37.910Z,10.47
2017-11-16T02:55:38.510Z,10.34
2017-11-16T02:55:39.110Z,10.44
2017-11-16T02:56:33.614Z,10.42
2017-11-16T02:56:34.189Z,10.37
2017-11-16T02:56:34.787Z,10.44
2017-11-16T02:56:35.388Z,10.40
2017-11-16T02:56:35.986Z,10.36
2017-11-16T02:56:36.604Z,10.37
2017-11-16T02:56:37.187Z,10.40
2017-11-16T02:56:37.800Z,10.47
2017-11-16T02:57:31.267Z,10.39
2017-11-16T02:57:31.848Z,10.36
2017-11-16T02:57:32.438Z,10.47
2017-11-16T02:57:33.039Z,10.33
2017-11-16T02:57:33.638Z,10.40
2017-11-16T02:57:34.237Z,10.40
2017-11-16T02:57:34.837Z,10.42
2017-11-16T02:57:35.439Z,10.43
2017-11-16T02:58:28.917Z,10.44
2017-11-16T02:58:29.490Z,10.39
2017-11-16T02:58:30.090Z,10.42
2017-11-16T02:58:30.692Z,10.43
2017-11-16T02:58:31.290Z,10.37
2017-11-16T02:58:31.890Z,10.43
2017-11-16T02:58:32.489Z,10.36
2017-11-16T02:58:33.089Z,10.40
2017-11-16T02:59:26.569Z,10.37
2017-11-16T02:59:27.143Z,10.43
2017-11-16T02:59:27.743Z,10.42
2017-11-16T02:59:28.344Z,10.46
2017-11-16T02:59:28.942Z,10.43
2017-11-16T02:59:29.543Z,10.43
2017-11-16T02:59:30.143Z,10.52
2017-11-16T02:59:30.743Z,10.39
2017-11-16T03:00:24.221Z,10.43
2017-11-16T03:00:24.795Z,10.51
2017-11-16T03:00:25.396Z,10.40
2017-11-16T03:00:25.997Z,10.43
2017-11-16T03:00:26.595Z,10.43
2017-11-16T03:00:27.195Z,10.44
2017-11-16T03:00:27.792Z,10.36
2017-11-16T03:00:28.393Z,10.42
2017-11-16T03:01:21.872Z,10.36
2017-11-16T03:01:22.446Z,10.43
2017-11-16T03:01:23.046Z,10.43
2017-11-16T03:01:23.647Z,10.43
2017-11-16T03:01:24.246Z,10.37
2017-11-16T03:01:24.845Z,10.47
2017-11-16T03:01:25.448Z,10.39
2017-11-16T03:01:26.046Z,10.44
2017-11-16T03:02:21.061Z,10.40
2017-11-16T03:02:21.634Z,10.44
2017-11-16T03:02:22.233Z,10.43
2017-11-16T03:02:22.832Z,10.44
2017-11-16T03:02:23.432Z,10.44
2017-11-16T03:02:24.033Z,10.44
2017-11-16T03:02:24.633Z,10.51
2017-11-16T03:03:19.134Z,10.47
2017-11-16T03:03:19.714Z,10.44
2017-11-16T03:03:20.294Z,10.42
2017-11-16T03:03:20.896Z,10.42
2017-11-16T03:03:21.495Z,10.40
2017-11-16T03:03:22.093Z,10.43
2017-11-16T03:03:22.694Z,10.40
2017-11-16T03:03:23.294Z,10.43
2017-11-16T03:04:16.778Z,10.46
2017-11-16T03:04:17.348Z,10.44
2017-11-16T03:04:17.948Z,10.47
2017-11-16T03:04:18.547Z,10.42
2017-11-16T03:04:19.146Z,10.40
2017-11-16T03:04:19.747Z,10.52
2017-11-16T03:04:20.350Z,10.47
2017-11-16T03:04:20.947Z,10.44
2017-11-16T03:05:15.961Z,10.43
2017-11-16T03:05:16.536Z,10.44
2017-11-16T03:05:17.133Z,10.44
2017-11-16T03:05:17.734Z,10.42
2017-11-16T03:05:18.336Z,10.39
2017-11-16T03:05:18.936Z,10.44
2017-11-16T03:06:13.000Z,10.44
2017-11-16T03:06:13.573Z,10.47
2017-11-16T03:06:14.173Z,10.47
2017-11-16T03:06:14.774Z,10.44
2017-11-16T03:06:15.373Z,10.42
2017-11-16T03:06:15.972Z,10.47
2017-11-16T03:06:16.571Z,10.46
2017-11-16T03:06:17.173Z,10.43
2017-11-16T03:07:10.651Z,10.40
2017-11-16T03:07:11.223Z,10.43
2017-11-16T03:07:11.826Z,10.46
2017-11-16T03:07:12.424Z,10.46
2017-11-16T03:07:13.023Z,10.43
2017-11-16T03:07:13.624Z,10.47
2017-11-16T03:07:14.226Z,10.43
2017-11-16T03:07:14.823Z,10.44
2017-11-16T03:08:08.303Z,10.51
2017-11-16T03:08:08.877Z,10.58
2017-11-16T03:08:09.476Z,10.58
2017-11-16T03:08:10.076Z,10.47
2017-11-16T03:08:10.676Z,10.44
2017-11-16T03:08:11.283Z,10.44
2017-11-16T03:08:11.876Z,10.52
2017-11-16T03:08:12.488Z,10.55
2017-11-16T03:09:05.960Z,10.56
2017-11-16T03:09:06.528Z,10.52
2017-11-16T03:09:07.129Z,10.59
2017-11-16T03:09:07.728Z,10.52
2017-11-16T03:09:08.326Z,10.56
2017-11-16T03:09:08.928Z,10.56
2017-11-16T03:09:09.526Z,10.62
2017-11-16T03:09:10.126Z,10.58
2017-11-16T03:10:04.630Z,10.59
2017-11-16T03:10:05.201Z,10.56
2017-11-16T03:10:05.804Z,10.56
2017-11-16T03:10:06.402Z,10.56
2017-11-16T03:10:07.009Z,10.58
2017-11-16T03:10:07.604Z,10.58
2017-11-16T03:10:08.201Z,10.53
2017-11-16T03:10:08.804Z,10.51
2017-11-16T03:11:02.282Z,10.59
2017-11-16T03:11:02.856Z,10.60
2017-11-16T03:11:03.455Z,10.60
2017-11-16T03:11:04.054Z,10.53
2017-11-16T03:11:04.654Z,10.58
2017-11-16T03:11:05.254Z,10.56
2017-11-16T03:11:05.855Z,10.55
2017-11-16T03:11:06.454Z,10.58
2017-11-16T03:12:00.956Z,10.60
2017-11-16T03:12:01.530Z,10.59
2017-11-16T03:12:02.130Z,10.56
2017-11-16T03:12:02.730Z,10.58
2017-11-16T03:12:03.331Z,10.59
2017-11-16T03:12:03.929Z,10.56
2017-11-16T03:12:04.528Z,10.65
2017-11-16T03:12:05.128Z,10.60
2017-11-16T03:12:59.633Z,10.56
2017-11-16T03:13:00.206Z,10.62
2017-11-16T03:13:00.807Z,10.56
2017-11-16T03:13:01.406Z,10.62
2017-11-16T03:13:02.009Z,10.56
2017-11-16T03:13:02.609Z,10.60
2017-11-16T03:13:03.206Z,10.73
2017-11-16T03:13:03.806Z,10.73
2017-11-16T03:13:58.310Z,10.60
2017-11-16T03:13:58.884Z,10.71
2017-11-16T03:13:59.486Z,10.63
2017-11-16T03:14:00.079Z,10.66
2017-11-16T03:14:00.700Z,10.68
2017-11-16T03:14:01.280Z,10.68
2017-11-16T03:14:01.878Z,10.65
2017-11-16T03:14:02.478Z,10.66
2017-11-16T03:14:56.984Z,10.71
2017-11-16T03:14:57.557Z,10.68
2017-11-16T03:14:58.157Z,10.68
2017-11-16T03:14:58.757Z,10.70
2017-11-16T03:14:59.356Z,10.66
2017-11-16T03:14:59.956Z,10.68
2017-11-16T03:15:00.556Z,10.74
2017-11-16T03:15:01.156Z,10.66
2017-11-16T03:15:54.635Z,10.66
2017-11-16T03:15:55.209Z,10.74
2017-11-16T03:15:55.809Z,10.65
2017-11-16T03:15:56.409Z,10.71
2017-11-16T03:15:57.009Z,10.74
2017-11-16T03:15:57.609Z,10.73
2017-11-16T03:15:58.208Z,10.74
2017-11-16T03:15:58.809Z,10.66
2017-11-16T03:16:53.310Z,10.71
2017-11-16T03:16:53.884Z,10.65
2017-11-16T03:16:54.483Z,10.74
2017-11-16T03:16:55.087Z,10.80
2017-11-16T03:16:55.685Z,10.74
2017-11-16T03:16:56.284Z,10.66
2017-11-16T03:16:56.884Z,10.70
2017-11-16T03:16:57.483Z,10.66
2017-11-16T03:17:50.965Z,10.77
2017-11-16T03:17:51.537Z,10.73
2017-11-16T03:17:52.138Z,10.70
2017-11-16T03:17:52.739Z,10.77
2017-11-16T03:17:53.357Z,10.74
2017-11-16T03:17:53.936Z,10.78
2017-11-16T03:17:54.536Z,10.70
2017-11-16T03:17:55.136Z,10.70
2017-11-16T03:18:49.638Z,10.68
2017-11-16T03:18:50.212Z,10.74
2017-11-16T03:18:50.811Z,10.74
2017-11-16T03:18:51.420Z,10.70
2017-11-16T03:18:52.009Z,10.71
2017-11-16T03:18:52.610Z,10.70
2017-11-16T03:18:53.209Z,10.78
2017-11-16T03:18:53.811Z,10.80
2017-11-16T03:19:47.290Z,10.80
2017-11-16T03:19:47.864Z,10.78
2017-11-16T03:19:48.465Z,10.77
2017-11-16T03:19:49.066Z,10.74
2017-11-16T03:19:49.665Z,10.76
2017-11-16T03:19:50.279Z,10.78
2017-11-16T03:19:50.862Z,10.76
2017-11-16T03:19:51.466Z,10.76
2017-11-16T03:20:44.943Z,10.73
2017-11-16T03:20:45.517Z,10.88
2017-11-16T03:20:46.117Z,10.78
2017-11-16T03:20:46.716Z,10.81
2017-11-16T03:20:47.318Z,10.86
2017-11-16T03:20:47.916Z,10.76
2017-11-16T03:20:48.516Z,10.83
2017-11-16T03:20:49.115Z,10.86
2017-11-16T03:21:42.594Z,10.83
2017-11-16T03:21:43.179Z,10.88
2017-11-16T03:21:43.768Z,10.89
2017-11-16T03:21:44.369Z,10.81
2017-11-16T03:21:44.968Z,10.89
2017-11-16T03:21:45.567Z,10.89
2017-11-16T03:21:46.167Z,10.86
2017-11-16T03:21:46.769Z,10.89
2017-11-16T03:22:40.245Z,10.83
2017-11-16T03:22:40.820Z,10.89
2017-11-16T03:22:41.419Z,10.83
2017-11-16T03:22:42.019Z,10.91
2017-11-16T03:22:42.619Z,10.81
2017-11-16T03:22:43.217Z,10.88
2017-11-16T03:22:43.819Z,10.89
2017-11-16T03:22:44.420Z,10.86
2017-11-16T03:23:37.896Z,10.86
2017-11-16T03:23:38.471Z,10.96
2017-11-16T03:23:39.071Z,10.91
2017-11-16T03:23:39.672Z,10.96
2017-11-16T03:23:40.271Z,10.92
2017-11-16T03:23:40.869Z,10.92
2017-11-16T03:23:41.470Z,10.95
2017-11-16T03:23:42.069Z,10.96
2017-11-16T03:24:36.573Z,10.89
2017-11-16T03:24:37.156Z,10.96
2017-11-16T03:24:37.746Z,10.94
2017-11-16T03:24:38.355Z,11.01
2017-11-16T03:24:38.947Z,10.88
2017-11-16T03:24:39.546Z,10.88
2017-11-16T03:24:40.146Z,10.89
2017-11-16T03:24:40.744Z,10.92
2017-11-16T03:25:34.225Z,10.88
2017-11-16T03:25:34.798Z,11.06
2017-11-16T03:25:35.398Z,10.89
2017-11-16T03:25:35.998Z,10.89
2017-11-16T03:25:36.599Z,10.86
2017-11-16T03:25:37.198Z,10.86
2017-11-16T03:25:37.796Z,10.98
2017-11-16T03:25:38.397Z,10.84
2017-11-16T03:26:31.876Z,10.96
2017-11-16T03:26:32.454Z,11.01
2017-11-16T03:26:33.064Z,10.89
2017-11-16T03:26:33.651Z,10.91
2017-11-16T03:26:34.249Z,11.01
2017-11-16T03:26:34.849Z,10.98
2017-11-16T03:26:35.449Z,10.88
2017-11-16T03:26:36.048Z,10.89
2017-11-16T03:27:30.552Z,11.01
2017-11-16T03:27:31.124Z,10.98
2017-11-16T03:27:31.724Z,10.99
2017-11-16T03:27:32.325Z,11.06
2017-11-16T03:27:32.926Z,11.03
2017-11-16T03:27:33.524Z,10.99
2017-11-16T03:27:34.125Z,10.99
2017-11-16T03:27:34.723Z,10.96
2017-11-16T03:28:28.201Z,10.95
2017-11-16T03:28:28.781Z,10.99
2017-11-16T03:28:29.380Z,11.02
2017-11-16T03:28:29.978Z,11.01
2017-11-16T03:28:30.577Z,11.01
2017-11-16T03:28:31.180Z,10.99
2017-11-16T03:28:31.777Z,11.06
2017-11-16T03:28:32.376Z,11.02
2017-11-16T03:29:25.857Z,11.06
2017-11-16T03:29:26.429Z,11.03
2017-11-16T03:29:27.028Z,11.06
2017-11-16T03:29:27.629Z,10.99
2017-11-16T03:29:28.235Z,10.99
2017-11-16T03:29:28.829Z,11.06
2017-11-16T03:29:29.428Z,10.99
2017-11-16T03:29:30.029Z,11.03
2017-11-16T03:30:23.509Z,11.02
2017-11-16T03:30:24.100Z,11.06
2017-11-16T03:30:24.688Z,11.03
2017-11-16T03:30:25.282Z,10.99
2017-11-16T03:30:25.881Z,10.99
2017-11-16T03:30:26.485Z,11.01
2017-11-16T03:30:27.081Z,11.01
2017-11-16T03:30:27.688Z,11.01
2017-11-16T03:31:22.182Z,11.06
2017-11-16T03:31:22.754Z,11.06
2017-11-16T03:31:23.354Z,11.06
2017-11-16T03:31:23.954Z,11.03
2017-11-16T03:31:24.554Z,11.09